sensor_id;sensor_type;location;lat;lon;timestamp;P1;durP1;ratioP1;P2;durP2;ratioP2
41837;SDS011;27511;52.042;5.178;2024-03-25T00:00:59;14.30;;;2.25;;
41837;SDS011;27511;52.042;5.178;2024-03-25T00:03:25;14.85;;;2.20;;
41837;SDS011;27511;52.042;5.178;2024-03-25T00:05:50;10.68;;;3.03;;
41837;SDS011;27511;52.042;5.178;2024-03-25T00:08:16;10.35;;;2.17;;
41837;SDS011;27511;52.042;5.178;2024-03-25T00:10:41;13.63;;;2.30;;
41837;SDS011;27511;52.042;5.178;2024-03-25T00:13:07;8.88;;;2.10;;
41837;SDS011;27511;52.042;5.178;2024-03-25T00:15:32;7.72;;;1.73;;
41837;SDS011;27511;52.042;5.178;2024-03-25T00:17:59;10.43;;;2.50;;
41837;SDS011;27511;52.042;5.178;2024-03-25T00:20:24;10.60;;;2.50;;
41837;SDS011;27511;52.042;5.178;2024-03-25T00:22:50;7.95;;;1.60;;
41837;SDS011;27511;52.042;5.178;2024-03-25T00:25:15;14.27;;;1.98;;
41837;SDS011;27511;52.042;5.178;2024-03-25T00:27:41;7.05;;;2.00;;
41837;SDS011;27511;52.042;5.178;2024-03-25T00:30:08;14.32;;;2.17;;
41837;SDS011;27511;52.042;5.178;2024-03-25T00:32:34;13.30;;;2.38;;
41837;SDS011;27511;52.042;5.178;2024-03-25T00:35:00;10.50;;;2.45;;
41837;SDS011;27511;52.042;5.178;2024-03-25T00:37:25;12.38;;;3.38;;
41837;SDS011;27511;52.042;5.178;2024-03-25T00:39:51;11.27;;;2.38;;
41837;SDS011;27511;52.042;5.178;2024-03-25T00:42:17;9.80;;;2.20;;
41837;SDS011;27511;52.042;5.178;2024-03-25T00:44:42;10.88;;;2.88;;
41837;SDS011;27511;52.042;5.178;2024-03-25T00:47:08;15.35;;;2.83;;
41837;SDS011;27511;52.042;5.178;2024-03-25T00:49:34;6.93;;;1.70;;
41837;SDS011;27511;52.042;5.178;2024-03-25T00:51:59;8.73;;;2.72;;
41837;SDS011;27511;52.042;5.178;2024-03-25T00:54:25;19.67;;;2.88;;
41837;SDS011;27511;52.042;5.178;2024-03-25T00:56:50;7.65;;;1.73;;
41837;SDS011;27511;52.042;5.178;2024-03-25T00:59:17;12.93;;;2.85;;
41837;SDS011;27511;52.042;5.178;2024-03-25T01:01:42;15.35;;;2.28;;
41837;SDS011;27511;52.042;5.178;2024-03-25T01:04:08;10.02;;;2.90;;
41837;SDS011;27511;52.042;5.178;2024-03-25T01:06:34;6.32;;;1.98;;
41837;SDS011;27511;52.042;5.178;2024-03-25T01:08:59;15.52;;;2.47;;
41837;SDS011;27511;52.042;5.178;2024-03-25T01:11:25;14.75;;;3.08;;
41837;SDS011;27511;52.042;5.178;2024-03-25T01:13:50;9.43;;;2.42;;
41837;SDS011;27511;52.042;5.178;2024-03-25T01:16:16;14.27;;;1.90;;
41837;SDS011;27511;52.042;5.178;2024-03-25T01:18:42;10.65;;;2.00;;
41837;SDS011;27511;52.042;5.178;2024-03-25T01:21:08;13.48;;;2.25;;
41837;SDS011;27511;52.042;5.178;2024-03-25T01:23:33;12.25;;;2.28;;
41837;SDS011;27511;52.042;5.178;2024-03-25T01:25:59;9.35;;;2.15;;
41837;SDS011;27511;52.042;5.178;2024-03-25T01:28:25;9.57;;;2.22;;
41837;SDS011;27511;52.042;5.178;2024-03-25T01:30:51;13.07;;;2.70;;
41837;SDS011;27511;52.042;5.178;2024-03-25T01:33:16;9.40;;;2.20;;
41837;SDS011;27511;52.042;5.178;2024-03-25T01:35:42;13.07;;;2.30;;
41837;SDS011;27511;52.042;5.178;2024-03-25T01:38:07;18.52;;;2.60;;
41837;SDS011;27511;52.042;5.178;2024-03-25T01:40:33;13.32;;;2.13;;
41837;SDS011;27511;52.042;5.178;2024-03-25T01:43:00;15.25;;;2.38;;
41837;SDS011;27511;52.042;5.178;2024-03-25T01:45:27;13.85;;;2.78;;
41837;SDS011;27511;52.042;5.178;2024-03-25T01:47:55;14.52;;;3.10;;
41837;SDS011;27511;52.042;5.178;2024-03-25T01:50:22;12.80;;;3.17;;
41837;SDS011;27511;52.042;5.178;2024-03-25T01:52:49;8.43;;;2.95;;
41837;SDS011;27511;52.042;5.178;2024-03-25T01:55:16;12.30;;;2.55;;
41837;SDS011;27511;52.042;5.178;2024-03-25T01:57:50;7.95;;;2.03;;
41837;SDS011;27511;52.042;5.178;2024-03-25T02:00:17;19.38;;;3.33;;
41837;SDS011;27511;52.042;5.178;2024-03-25T02:02:43;20.42;;;3.35;;
41837;SDS011;27511;52.042;5.178;2024-03-25T02:05:10;9.75;;;2.42;;
41837;SDS011;27511;52.042;5.178;2024-03-25T02:07:36;8.93;;;2.13;;
41837;SDS011;27511;52.042;5.178;2024-03-25T02:10:05;15.48;;;3.20;;
41837;SDS011;27511;52.042;5.178;2024-03-25T02:12:31;11.88;;;2.22;;
41837;SDS011;27511;52.042;5.178;2024-03-25T02:14:58;8.70;;;2.25;;
41837;SDS011;27511;52.042;5.178;2024-03-25T02:17:24;13.20;;;3.47;;
41837;SDS011;27511;52.042;5.178;2024-03-25T02:19:50;10.63;;;1.58;;
41837;SDS011;27511;52.042;5.178;2024-03-25T02:22:16;10.65;;;1.95;;
41837;SDS011;27511;52.042;5.178;2024-03-25T02:24:42;12.63;;;2.47;;
41837;SDS011;27511;52.042;5.178;2024-03-25T02:27:11;12.10;;;2.67;;
41837;SDS011;27511;52.042;5.178;2024-03-25T02:29:39;15.10;;;2.78;;
41837;SDS011;27511;52.042;5.178;2024-03-25T02:32:06;14.95;;;2.20;;
41837;SDS011;27511;52.042;5.178;2024-03-25T02:34:37;16.27;;;2.45;;
41837;SDS011;27511;52.042;5.178;2024-03-25T02:37:03;10.82;;;2.08;;
41837;SDS011;27511;52.042;5.178;2024-03-25T02:39:29;7.57;;;2.10;;
41837;SDS011;27511;52.042;5.178;2024-03-25T02:41:55;11.80;;;2.30;;
41837;SDS011;27511;52.042;5.178;2024-03-25T02:44:22;9.25;;;1.90;;
41837;SDS011;27511;52.042;5.178;2024-03-25T02:46:48;4.43;;;1.85;;
41837;SDS011;27511;52.042;5.178;2024-03-25T02:49:14;8.02;;;1.65;;
41837;SDS011;27511;52.042;5.178;2024-03-25T02:51:40;8.10;;;1.88;;
41837;SDS011;27511;52.042;5.178;2024-03-25T02:54:05;7.32;;;2.00;;
41837;SDS011;27511;52.042;5.178;2024-03-25T02:56:31;9.60;;;1.42;;
41837;SDS011;27511;52.042;5.178;2024-03-25T02:58:56;6.20;;;1.30;;
41837;SDS011;27511;52.042;5.178;2024-03-25T03:01:22;12.27;;;2.50;;
41837;SDS011;27511;52.042;5.178;2024-03-25T03:03:47;8.60;;;1.80;;
41837;SDS011;27511;52.042;5.178;2024-03-25T03:06:13;7.75;;;1.85;;
41837;SDS011;27511;52.042;5.178;2024-03-25T03:08:38;9.63;;;2.15;;
41837;SDS011;27511;52.042;5.178;2024-03-25T03:11:04;11.45;;;2.22;;
41837;SDS011;27511;52.042;5.178;2024-03-25T03:13:29;7.90;;;2.00;;
41837;SDS011;27511;52.042;5.178;2024-03-25T03:15:55;10.35;;;1.88;;
41837;SDS011;27511;52.042;5.178;2024-03-25T03:18:20;8.57;;;2.22;;
41837;SDS011;27511;52.042;5.178;2024-03-25T03:20:46;9.10;;;1.95;;
41837;SDS011;27511;52.042;5.178;2024-03-25T03:23:13;7.75;;;1.55;;
41837;SDS011;27511;52.042;5.178;2024-03-25T03:25:40;6.18;;;1.45;;
41837;SDS011;27511;52.042;5.178;2024-03-25T03:28:05;12.05;;;2.22;;
41837;SDS011;27511;52.042;5.178;2024-03-25T03:30:31;6.55;;;2.22;;
41837;SDS011;27511;52.042;5.178;2024-03-25T03:32:57;8.45;;;1.65;;
41837;SDS011;27511;52.042;5.178;2024-03-25T03:35:22;7.13;;;2.08;;
41837;SDS011;27511;52.042;5.178;2024-03-25T03:37:48;9.48;;;2.60;;
41837;SDS011;27511;52.042;5.178;2024-03-25T03:40:13;9.35;;;2.92;;
41837;SDS011;27511;52.042;5.178;2024-03-25T03:42:39;8.48;;;2.20;;
41837;SDS011;27511;52.042;5.178;2024-03-25T03:45:05;4.65;;;1.52;;
41837;SDS011;27511;52.042;5.178;2024-03-25T03:47:31;3.58;;;1.60;;
41837;SDS011;27511;52.042;5.178;2024-03-25T03:49:57;6.47;;;1.75;;
41837;SDS011;27511;52.042;5.178;2024-03-25T03:52:23;6.57;;;1.40;;
41837;SDS011;27511;52.042;5.178;2024-03-25T03:54:48;7.53;;;1.42;;
41837;SDS011;27511;52.042;5.178;2024-03-25T03:57:14;7.38;;;1.73;;
41837;SDS011;27511;52.042;5.178;2024-03-25T03:59:40;5.32;;;1.48;;
41837;SDS011;27511;52.042;5.178;2024-03-25T04:02:05;8.02;;;2.33;;
41837;SDS011;27511;52.042;5.178;2024-03-25T04:04:33;10.60;;;2.88;;
41837;SDS011;27511;52.042;5.178;2024-03-25T04:07:00;8.73;;;2.50;;
41837;SDS011;27511;52.042;5.178;2024-03-25T04:09:27;8.60;;;1.83;;
41837;SDS011;27511;52.042;5.178;2024-03-25T04:11:54;6.15;;;1.60;;
41837;SDS011;27511;52.042;5.178;2024-03-25T04:14:20;8.68;;;1.92;;
41837;SDS011;27511;52.042;5.178;2024-03-25T04:16:45;5.85;;;1.90;;
41837;SDS011;27511;52.042;5.178;2024-03-25T04:19:12;6.55;;;1.88;;
41837;SDS011;27511;52.042;5.178;2024-03-25T04:21:38;9.20;;;1.95;;
41837;SDS011;27511;52.042;5.178;2024-03-25T04:24:04;4.43;;;1.67;;
41837;SDS011;27511;52.042;5.178;2024-03-25T04:26:31;7.60;;;2.25;;
41837;SDS011;27511;52.042;5.178;2024-03-25T04:28:56;6.95;;;2.65;;
41837;SDS011;27511;52.042;5.178;2024-03-25T04:31:22;5.75;;;1.77;;
41837;SDS011;27511;52.042;5.178;2024-03-25T04:33:47;5.60;;;2.10;;
41837;SDS011;27511;52.042;5.178;2024-03-25T04:36:13;8.85;;;2.13;;
41837;SDS011;27511;52.042;5.178;2024-03-25T04:38:39;6.28;;;2.50;;
41837;SDS011;27511;52.042;5.178;2024-03-25T04:41:04;7.00;;;2.25;;
41837;SDS011;27511;52.042;5.178;2024-03-25T04:43:30;6.78;;;2.28;;
41837;SDS011;27511;52.042;5.178;2024-03-25T04:45:55;6.47;;;1.95;;
41837;SDS011;27511;52.042;5.178;2024-03-25T04:48:21;4.75;;;1.73;;
41837;SDS011;27511;52.042;5.178;2024-03-25T04:50:46;7.07;;;1.80;;
41837;SDS011;27511;52.042;5.178;2024-03-25T04:53:12;4.97;;;2.08;;
41837;SDS011;27511;52.042;5.178;2024-03-25T04:55:37;8.93;;;2.42;;
41837;SDS011;27511;52.042;5.178;2024-03-25T04:58:03;5.03;;;1.92;;
41837;SDS011;27511;52.042;5.178;2024-03-25T05:00:29;5.82;;;2.05;;
41837;SDS011;27511;52.042;5.178;2024-03-25T05:02:54;5.32;;;1.88;;
41837;SDS011;27511;52.042;5.178;2024-03-25T05:05:20;7.40;;;2.28;;
41837;SDS011;27511;52.042;5.178;2024-03-25T05:07:46;8.25;;;2.40;;
41837;SDS011;27511;52.042;5.178;2024-03-25T05:10:11;12.35;;;2.85;;
41837;SDS011;27511;52.042;5.178;2024-03-25T05:12:38;11.32;;;3.30;;
41837;SDS011;27511;52.042;5.178;2024-03-25T05:15:03;8.70;;;2.42;;
41837;SDS011;27511;52.042;5.178;2024-03-25T05:17:30;8.98;;;2.95;;
41837;SDS011;27511;52.042;5.178;2024-03-25T05:19:56;5.93;;;2.28;;
41837;SDS011;27511;52.042;5.178;2024-03-25T05:22:22;6.25;;;2.28;;
41837;SDS011;27511;52.042;5.178;2024-03-25T05:24:47;10.68;;;3.13;;
41837;SDS011;27511;52.042;5.178;2024-03-25T05:27:13;7.57;;;2.55;;
41837;SDS011;27511;52.042;5.178;2024-03-25T05:29:38;10.10;;;3.00;;
41837;SDS011;27511;52.042;5.178;2024-03-25T05:32:04;8.48;;;2.85;;
41837;SDS011;27511;52.042;5.178;2024-03-25T05:34:30;3.78;;;2.05;;
41837;SDS011;27511;52.042;5.178;2024-03-25T05:36:56;6.75;;;2.30;;
41837;SDS011;27511;52.042;5.178;2024-03-25T05:39:22;9.77;;;2.38;;
41837;SDS011;27511;52.042;5.178;2024-03-25T05:41:48;10.77;;;3.75;;
41837;SDS011;27511;52.042;5.178;2024-03-25T05:44:14;7.32;;;2.63;;
41837;SDS011;27511;52.042;5.178;2024-03-25T05:46:40;10.57;;;2.67;;
41837;SDS011;27511;52.042;5.178;2024-03-25T05:49:05;7.03;;;2.80;;
41837;SDS011;27511;52.042;5.178;2024-03-25T05:51:31;14.35;;;3.10;;
41837;SDS011;27511;52.042;5.178;2024-03-25T05:54:00;8.15;;;2.10;;
41837;SDS011;27511;52.042;5.178;2024-03-25T05:56:26;11.23;;;2.67;;
41837;SDS011;27511;52.042;5.178;2024-03-25T05:59:01;4.45;;;2.25;;
41837;SDS011;27511;52.042;5.178;2024-03-25T06:01:26;10.60;;;3.00;;
41837;SDS011;27511;52.042;5.178;2024-03-25T06:03:52;8.68;;;2.55;;
41837;SDS011;27511;52.042;5.178;2024-03-25T06:06:17;4.90;;;2.25;;
41837;SDS011;27511;52.042;5.178;2024-03-25T06:08:43;11.90;;;2.75;;
41837;SDS011;27511;52.042;5.178;2024-03-25T06:11:09;12.05;;;3.08;;
41837;SDS011;27511;52.042;5.178;2024-03-25T06:13:35;6.05;;;2.53;;
41837;SDS011;27511;52.042;5.178;2024-03-25T06:16:00;7.05;;;1.98;;
41837;SDS011;27511;52.042;5.178;2024-03-25T06:18:26;6.95;;;2.38;;
41837;SDS011;27511;52.042;5.178;2024-03-25T06:20:52;13.15;;;2.58;;
41837;SDS011;27511;52.042;5.178;2024-03-25T06:23:24;7.28;;;2.22;;
41837;SDS011;27511;52.042;5.178;2024-03-25T06:25:53;6.70;;;1.92;;
41837;SDS011;27511;52.042;5.178;2024-03-25T06:28:20;2.83;;;1.60;;
41837;SDS011;27511;52.042;5.178;2024-03-25T06:30:46;8.88;;;2.20;;
41837;SDS011;27511;52.042;5.178;2024-03-25T06:33:30;6.30;;;2.13;;
41837;SDS011;27511;52.042;5.178;2024-03-25T06:36:15;10.52;;;2.78;;
41837;SDS011;27511;52.042;5.178;2024-03-25T06:38:42;9.18;;;2.83;;
41837;SDS011;27511;52.042;5.178;2024-03-25T06:41:07;9.13;;;2.47;;
41837;SDS011;27511;52.042;5.178;2024-03-25T06:43:33;12.88;;;2.90;;
41837;SDS011;27511;52.042;5.178;2024-03-25T06:45:59;9.27;;;2.90;;
41837;SDS011;27511;52.042;5.178;2024-03-25T06:48:25;8.00;;;3.33;;
41837;SDS011;27511;52.042;5.178;2024-03-25T06:50:57;10.10;;;2.58;;
41837;SDS011;27511;52.042;5.178;2024-03-25T06:53:24;7.68;;;2.63;;
41837;SDS011;27511;52.042;5.178;2024-03-25T06:55:53;9.43;;;2.95;;
41837;SDS011;27511;52.042;5.178;2024-03-25T06:58:20;10.82;;;2.78;;
41837;SDS011;27511;52.042;5.178;2024-03-25T07:00:46;12.07;;;2.83;;
41837;SDS011;27511;52.042;5.178;2024-03-25T07:03:16;6.75;;;3.17;;
41837;SDS011;27511;52.042;5.178;2024-03-25T07:05:45;11.18;;;2.95;;
41837;SDS011;27511;52.042;5.178;2024-03-25T07:08:12;5.43;;;2.80;;
41837;SDS011;27511;52.042;5.178;2024-03-25T07:10:38;14.77;;;3.55;;
41837;SDS011;27511;52.042;5.178;2024-03-25T07:13:03;7.65;;;2.72;;
41837;SDS011;27511;52.042;5.178;2024-03-25T07:15:30;12.07;;;3.65;;
41837;SDS011;27511;52.042;5.178;2024-03-25T07:17:56;18.02;;;4.05;;
41837;SDS011;27511;52.042;5.178;2024-03-25T07:20:22;11.60;;;3.60;;
41837;SDS011;27511;52.042;5.178;2024-03-25T07:22:48;6.03;;;3.60;;
41837;SDS011;27511;52.042;5.178;2024-03-25T07:25:14;9.18;;;3.88;;
41837;SDS011;27511;52.042;5.178;2024-03-25T07:27:39;10.77;;;3.15;;
41837;SDS011;27511;52.042;5.178;2024-03-25T07:30:06;9.95;;;3.17;;
41837;SDS011;27511;52.042;5.178;2024-03-25T07:32:32;16.63;;;3.55;;
41837;SDS011;27511;52.042;5.178;2024-03-25T07:34:59;8.73;;;2.88;;
41837;SDS011;27511;52.042;5.178;2024-03-25T07:37:24;11.27;;;2.95;;
41837;SDS011;27511;52.042;5.178;2024-03-25T07:39:50;11.75;;;3.45;;
41837;SDS011;27511;52.042;5.178;2024-03-25T07:42:16;11.63;;;3.15;;
41837;SDS011;27511;52.042;5.178;2024-03-25T07:44:42;11.15;;;3.13;;
41837;SDS011;27511;52.042;5.178;2024-03-25T07:47:07;15.07;;;4.30;;
41837;SDS011;27511;52.042;5.178;2024-03-25T07:49:33;18.65;;;4.03;;
41837;SDS011;27511;52.042;5.178;2024-03-25T07:51:59;13.93;;;3.75;;
41837;SDS011;27511;52.042;5.178;2024-03-25T07:54:25;10.35;;;3.40;;
41837;SDS011;27511;52.042;5.178;2024-03-25T07:56:51;14.90;;;3.85;;
41837;SDS011;27511;52.042;5.178;2024-03-25T07:59:20;13.07;;;3.30;;
41837;SDS011;27511;52.042;5.178;2024-03-25T08:01:45;12.45;;;3.78;;
41837;SDS011;27511;52.042;5.178;2024-03-25T08:04:11;8.85;;;3.35;;
41837;SDS011;27511;52.042;5.178;2024-03-25T08:06:36;14.68;;;3.25;;
41837;SDS011;27511;52.042;5.178;2024-03-25T08:09:02;18.15;;;3.45;;
41837;SDS011;27511;52.042;5.178;2024-03-25T08:11:31;16.80;;;4.40;;
41837;SDS011;27511;52.042;5.178;2024-03-25T08:13:57;14.70;;;3.65;;
41837;SDS011;27511;52.042;5.178;2024-03-25T08:16:22;18.38;;;5.65;;
41837;SDS011;27511;52.042;5.178;2024-03-25T08:18:48;15.73;;;4.20;;
41837;SDS011;27511;52.042;5.178;2024-03-25T08:21:14;9.73;;;3.35;;
41837;SDS011;27511;52.042;5.178;2024-03-25T08:23:39;14.52;;;3.50;;
41837;SDS011;27511;52.042;5.178;2024-03-25T08:26:05;10.60;;;3.33;;
41837;SDS011;27511;52.042;5.178;2024-03-25T08:28:32;12.27;;;2.58;;
41837;SDS011;27511;52.042;5.178;2024-03-25T08:30:58;15.23;;;4.25;;
41837;SDS011;27511;52.042;5.178;2024-03-25T08:33:24;13.18;;;3.28;;
41837;SDS011;27511;52.042;5.178;2024-03-25T08:35:49;12.15;;;3.63;;
41837;SDS011;27511;52.042;5.178;2024-03-25T08:38:15;12.88;;;3.40;;
41837;SDS011;27511;52.042;5.178;2024-03-25T08:40:41;9.38;;;3.70;;
41837;SDS011;27511;52.042;5.178;2024-03-25T08:43:06;15.50;;;3.70;;
41837;SDS011;27511;52.042;5.178;2024-03-25T08:45:32;16.02;;;4.40;;
41837;SDS011;27511;52.042;5.178;2024-03-25T08:47:58;13.40;;;4.72;;
41837;SDS011;27511;52.042;5.178;2024-03-25T08:50:23;12.10;;;4.28;;
41837;SDS011;27511;52.042;5.178;2024-03-25T08:52:49;13.20;;;3.72;;
41837;SDS011;27511;52.042;5.178;2024-03-25T08:55:15;12.40;;;3.85;;
41837;SDS011;27511;52.042;5.178;2024-03-25T08:57:40;14.68;;;4.35;;
41837;SDS011;27511;52.042;5.178;2024-03-25T09:00:09;16.25;;;3.88;;
41837;SDS011;27511;52.042;5.178;2024-03-25T09:02:38;9.68;;;3.08;;
41837;SDS011;27511;52.042;5.178;2024-03-25T09:05:07;14.55;;;3.92;;
41837;SDS011;27511;52.042;5.178;2024-03-25T09:07:33;17.42;;;4.40;;
41837;SDS011;27511;52.042;5.178;2024-03-25T09:09:59;13.85;;;3.17;;
41837;SDS011;27511;52.042;5.178;2024-03-25T09:12:43;10.68;;;3.30;;
41837;SDS011;27511;52.042;5.178;2024-03-25T09:15:08;8.13;;;2.55;;
41837;SDS011;27511;52.042;5.178;2024-03-25T09:17:35;11.90;;;2.95;;
41837;SDS011;27511;52.042;5.178;2024-03-25T09:20:01;13.23;;;3.67;;
41837;SDS011;27511;52.042;5.178;2024-03-25T09:22:29;14.73;;;5.38;;
41837;SDS011;27511;52.042;5.178;2024-03-25T09:24:54;20.95;;;5.95;;
41837;SDS011;27511;52.042;5.178;2024-03-25T09:27:20;14.18;;;5.43;;
41837;SDS011;27511;52.042;5.178;2024-03-25T09:29:45;9.90;;;4.50;;
41837;SDS011;27511;52.042;5.178;2024-03-25T09:32:11;11.65;;;4.40;;
41837;SDS011;27511;52.042;5.178;2024-03-25T09:34:37;14.38;;;5.15;;
41837;SDS011;27511;52.042;5.178;2024-03-25T09:37:03;15.00;;;6.25;;
41837;SDS011;27511;52.042;5.178;2024-03-25T09:39:28;16.60;;;6.78;;
41837;SDS011;27511;52.042;5.178;2024-03-25T09:41:55;18.05;;;6.97;;
41837;SDS011;27511;52.042;5.178;2024-03-25T09:44:24;15.55;;;6.40;;
41837;SDS011;27511;52.042;5.178;2024-03-25T09:46:50;14.50;;;6.95;;
41837;SDS011;27511;52.042;5.178;2024-03-25T09:49:16;17.23;;;6.90;;
41837;SDS011;27511;52.042;5.178;2024-03-25T09:51:42;15.10;;;6.53;;
41837;SDS011;27511;52.042;5.178;2024-03-25T09:54:08;14.32;;;6.95;;
41837;SDS011;27511;52.042;5.178;2024-03-25T09:56:34;18.55;;;6.68;;
41837;SDS011;27511;52.042;5.178;2024-03-25T09:59:02;10.73;;;5.15;;
41837;SDS011;27511;52.042;5.178;2024-03-25T10:01:28;9.18;;;4.95;;
41837;SDS011;27511;52.042;5.178;2024-03-25T10:03:54;12.57;;;5.38;;
41837;SDS011;27511;52.042;5.178;2024-03-25T10:06:20;12.85;;;5.65;;
41837;SDS011;27511;52.042;5.178;2024-03-25T10:08:45;12.77;;;5.32;;
41837;SDS011;27511;52.042;5.178;2024-03-25T10:11:11;12.38;;;5.22;;
41837;SDS011;27511;52.042;5.178;2024-03-25T10:13:40;14.65;;;5.85;;
41837;SDS011;27511;52.042;5.178;2024-03-25T10:16:06;12.70;;;5.72;;
41837;SDS011;27511;52.042;5.178;2024-03-25T10:18:32;13.30;;;5.38;;
41837;SDS011;27511;52.042;5.178;2024-03-25T10:20:58;17.08;;;6.55;;
41837;SDS011;27511;52.042;5.178;2024-03-25T10:23:24;13.25;;;6.15;;
41837;SDS011;27511;52.042;5.178;2024-03-25T10:25:52;11.73;;;6.05;;
41837;SDS011;27511;52.042;5.178;2024-03-25T10:28:18;10.50;;;6.55;;
41837;SDS011;27511;52.042;5.178;2024-03-25T10:30:44;10.85;;;6.68;;
41837;SDS011;27511;52.042;5.178;2024-03-25T10:33:09;12.65;;;6.78;;
41837;SDS011;27511;52.042;5.178;2024-03-25T10:35:36;12.50;;;6.40;;
41837;SDS011;27511;52.042;5.178;2024-03-25T10:38:06;14.43;;;5.95;;
41837;SDS011;27511;52.042;5.178;2024-03-25T10:40:36;11.07;;;5.63;;
41837;SDS011;27511;52.042;5.178;2024-03-25T10:45:29;11.70;;;6.05;;
41837;SDS011;27511;52.042;5.178;2024-03-25T10:47:59;15.07;;;6.85;;
41837;SDS011;27511;52.042;5.178;2024-03-25T10:50:32;13.00;;;6.88;;
41837;SDS011;27511;52.042;5.178;2024-03-25T10:53:01;11.70;;;5.80;;
41837;SDS011;27511;52.042;5.178;2024-03-25T10:55:29;9.48;;;6.03;;
41837;SDS011;27511;52.042;5.178;2024-03-25T10:57:56;11.00;;;6.88;;
41837;SDS011;27511;52.042;5.178;2024-03-25T11:00:22;9.38;;;5.60;;
41837;SDS011;27511;52.042;5.178;2024-03-25T11:02:48;9.32;;;5.30;;
41837;SDS011;27511;52.042;5.178;2024-03-25T11:05:14;10.57;;;5.72;;
41837;SDS011;27511;52.042;5.178;2024-03-25T11:07:40;9.18;;;5.20;;
41837;SDS011;27511;52.042;5.178;2024-03-25T11:10:08;10.05;;;5.63;;
41837;SDS011;27511;52.042;5.178;2024-03-25T11:12:38;10.85;;;4.85;;
41837;SDS011;27511;52.042;5.178;2024-03-25T11:15:05;12.73;;;5.13;;
41837;SDS011;27511;52.042;5.178;2024-03-25T11:17:35;13.23;;;4.53;;
41837;SDS011;27511;52.042;5.178;2024-03-25T11:20:11;10.02;;;4.47;;
41837;SDS011;27511;52.042;5.178;2024-03-25T11:22:51;9.23;;;5.07;;
41837;SDS011;27511;52.042;5.178;2024-03-25T11:25:18;10.95;;;4.82;;
41837;SDS011;27511;52.042;5.178;2024-03-25T11:27:45;6.50;;;4.90;;
41837;SDS011;27511;52.042;5.178;2024-03-25T11:30:12;13.48;;;5.03;;
41837;SDS011;27511;52.042;5.178;2024-03-25T11:32:43;12.82;;;5.32;;
41837;SDS011;27511;52.042;5.178;2024-03-25T11:35:16;13.73;;;5.60;;
41837;SDS011;27511;52.042;5.178;2024-03-25T11:37:41;10.90;;;5.70;;
41837;SDS011;27511;52.042;5.178;2024-03-25T11:40:08;9.75;;;4.80;;
41837;SDS011;27511;52.042;5.178;2024-03-25T11:42:38;7.70;;;3.70;;
41837;SDS011;27511;52.042;5.178;2024-03-25T11:45:04;10.18;;;4.10;;
41837;SDS011;27511;52.042;5.178;2024-03-25T11:47:31;7.38;;;4.05;;
41837;SDS011;27511;52.042;5.178;2024-03-25T11:49:57;8.98;;;3.72;;
41837;SDS011;27511;52.042;5.178;2024-03-25T11:52:22;10.98;;;4.43;;
41837;SDS011;27511;52.042;5.178;2024-03-25T11:54:54;9.48;;;3.78;;
41837;SDS011;27511;52.042;5.178;2024-03-25T11:57:20;9.43;;;3.40;;
41837;SDS011;27511;52.042;5.178;2024-03-25T11:59:47;8.60;;;2.83;;
41837;SDS011;27511;52.042;5.178;2024-03-25T12:02:14;6.50;;;3.45;;
41837;SDS011;27511;52.042;5.178;2024-03-25T12:04:44;5.93;;;3.30;;
41837;SDS011;27511;52.042;5.178;2024-03-25T12:07:11;5.40;;;3.38;;
41837;SDS011;27511;52.042;5.178;2024-03-25T12:09:37;7.90;;;3.42;;
41837;SDS011;27511;52.042;5.178;2024-03-25T12:12:21;9.77;;;3.03;;
41837;SDS011;27511;52.042;5.178;2024-03-25T12:14:47;5.97;;;3.25;;
41837;SDS011;27511;52.042;5.178;2024-03-25T12:17:13;5.60;;;2.53;;
41837;SDS011;27511;52.042;5.178;2024-03-25T12:19:39;6.10;;;3.55;;
41837;SDS011;27511;52.042;5.178;2024-03-25T12:22:06;9.82;;;3.67;;
41837;SDS011;27511;52.042;5.178;2024-03-25T12:24:32;6.75;;;3.55;;
41837;SDS011;27511;52.042;5.178;2024-03-25T12:26:58;8.45;;;3.45;;
41837;SDS011;27511;52.042;5.178;2024-03-25T12:29:24;10.07;;;4.30;;
41837;SDS011;27511;52.042;5.178;2024-03-25T12:31:54;6.82;;;3.90;;
41837;SDS011;27511;52.042;5.178;2024-03-25T12:34:24;7.28;;;3.78;;
41837;SDS011;27511;52.042;5.178;2024-03-25T12:36:50;10.80;;;3.80;;
41837;SDS011;27511;52.042;5.178;2024-03-25T12:39:19;6.60;;;3.75;;
41837;SDS011;27511;52.042;5.178;2024-03-25T12:41:45;6.40;;;3.30;;
41837;SDS011;27511;52.042;5.178;2024-03-25T12:44:13;8.55;;;3.53;;
41837;SDS011;27511;52.042;5.178;2024-03-25T12:46:39;5.68;;;3.50;;
41837;SDS011;27511;52.042;5.178;2024-03-25T12:49:05;6.65;;;3.60;;
41837;SDS011;27511;52.042;5.178;2024-03-25T12:51:31;8.65;;;4.30;;
41837;SDS011;27511;52.042;5.178;2024-03-25T12:53:57;11.95;;;3.85;;
41837;SDS011;27511;52.042;5.178;2024-03-25T12:56:22;9.43;;;4.25;;
41837;SDS011;27511;52.042;5.178;2024-03-25T12:58:49;9.63;;;4.22;;
41837;SDS011;27511;52.042;5.178;2024-03-25T13:01:14;5.78;;;3.33;;
41837;SDS011;27511;52.042;5.178;2024-03-25T13:03:40;7.53;;;3.72;;
41837;SDS011;27511;52.042;5.178;2024-03-25T13:06:07;6.93;;;3.70;;
41837;SDS011;27511;52.042;5.178;2024-03-25T13:08:32;7.15;;;3.53;;
41837;SDS011;27511;52.042;5.178;2024-03-25T13:10:58;7.63;;;3.33;;
41837;SDS011;27511;52.042;5.178;2024-03-25T13:13:24;6.80;;;3.55;;
41837;SDS011;27511;52.042;5.178;2024-03-25T13:15:50;9.05;;;3.65;;
41837;SDS011;27511;52.042;5.178;2024-03-25T13:18:16;5.40;;;3.30;;
41837;SDS011;27511;52.042;5.178;2024-03-25T13:20:43;7.00;;;2.85;;
41837;SDS011;27511;52.042;5.178;2024-03-25T13:23:09;6.72;;;3.00;;
41837;SDS011;27511;52.042;5.178;2024-03-25T13:25:35;4.13;;;2.60;;
41837;SDS011;27511;52.042;5.178;2024-03-25T13:28:01;5.32;;;2.85;;
41837;SDS011;27511;52.042;5.178;2024-03-25T13:30:27;8.20;;;3.33;;
41837;SDS011;27511;52.042;5.178;2024-03-25T13:32:53;6.60;;;3.13;;
41837;SDS011;27511;52.042;5.178;2024-03-25T13:35:19;5.93;;;2.67;;
41837;SDS011;27511;52.042;5.178;2024-03-25T13:37:44;5.15;;;2.92;;
41837;SDS011;27511;52.042;5.178;2024-03-25T13:40:10;4.90;;;2.90;;
41837;SDS011;27511;52.042;5.178;2024-03-25T13:42:39;5.13;;;2.55;;
41837;SDS011;27511;52.042;5.178;2024-03-25T13:45:05;7.63;;;3.13;;
41837;SDS011;27511;52.042;5.178;2024-03-25T13:47:31;5.13;;;2.58;;
41837;SDS011;27511;52.042;5.178;2024-03-25T13:50:00;5.65;;;2.92;;
41837;SDS011;27511;52.042;5.178;2024-03-25T13:52:32;7.78;;;3.22;;
41837;SDS011;27511;52.042;5.178;2024-03-25T13:54:58;5.65;;;3.00;;
41837;SDS011;27511;52.042;5.178;2024-03-25T13:57:24;5.32;;;3.20;;
41837;SDS011;27511;52.042;5.178;2024-03-25T13:59:52;7.63;;;2.95;;
41837;SDS011;27511;52.042;5.178;2024-03-25T14:02:18;6.25;;;3.28;;
41837;SDS011;27511;52.042;5.178;2024-03-25T14:04:44;6.72;;;3.03;;
41837;SDS011;27511;52.042;5.178;2024-03-25T14:07:13;6.18;;;2.90;;
41837;SDS011;27511;52.042;5.178;2024-03-25T14:09:38;7.35;;;3.60;;
41837;SDS011;27511;52.042;5.178;2024-03-25T14:12:04;6.22;;;2.80;;
41837;SDS011;27511;52.042;5.178;2024-03-25T14:14:30;6.25;;;3.30;;
41837;SDS011;27511;52.042;5.178;2024-03-25T14:16:56;5.57;;;2.97;;
41837;SDS011;27511;52.042;5.178;2024-03-25T14:19:22;4.55;;;2.72;;
41837;SDS011;27511;52.042;5.178;2024-03-25T14:21:50;7.07;;;3.17;;
41837;SDS011;27511;52.042;5.178;2024-03-25T14:24:16;6.03;;;3.30;;
41837;SDS011;27511;52.042;5.178;2024-03-25T14:26:41;5.97;;;3.65;;
41837;SDS011;27511;52.042;5.178;2024-03-25T14:29:07;10.25;;;3.20;;
41837;SDS011;27511;52.042;5.178;2024-03-25T14:31:33;8.40;;;3.22;;
41837;SDS011;27511;52.042;5.178;2024-03-25T14:33:58;6.50;;;3.15;;
41837;SDS011;27511;52.042;5.178;2024-03-25T14:36:24;5.25;;;3.22;;
41837;SDS011;27511;52.042;5.178;2024-03-25T14:38:49;8.82;;;3.25;;